| Date | Time | Temp. (oF) | Dew Point (oF) | Rel. Hum. (%) | Press. (in.) | Wind Dir. | Wind Speed (mph) | Hourly Rainfall (in.) |
|
|---|---|---|---|---|---|---|---|---|---|
| 1 | 10/23 | 00:00 | 40 | 30 | 70 | 30.51 | N | 4 | 0.00 |
| 2 | 10/22 | 23:00 | 42 | 31 | 66 | 30.51 | NNE | 3 | 0.00 |
| 3 | 10/22 | 22:00 | 44 | 32 | 63 | 30.49 | NNE | 6 | 0.00 |
| 4 | 10/22 | 21:00 | 44 | 32 | 63 | 30.46 | N | 4 | 0.00 |
| 5 | 10/22 | 20:00 | 44 | 32 | 63 | 30.43 | NNE | 4 | 0.00 |
| 6 | 10/22 | 19:00 | 47 | 32 | 56 | 30.41 | NNW | 9 | 0.00 |
| 7 | 10/22 | 18:00 | 48 | 31 | 52 | 30.38 | N | 7 | 0.00 |
| 8 | 10/22 | 17:00 | 50 | 32 | 51 | 30.35 | N | 10 | 0.00 |
| 9 | 10/22 | 16:00 | 50 | 32 | 50 | 30.33 | N | 13 | 0.00 |
| 10 | 10/22 | 15:00 | 50 | 32 | 51 | 30.32 | NW | 5 | 0.00 |
| 11 | 10/22 | 14:00 | 50 | 33 | 52 | 30.31 | N | 10 | 0.00 |
| 12 | 10/22 | 13:00 | 49 | 32 | 53 | 30.32 | N | 14 | 0.00 |
| 13 | 10/22 | 12:00 | 48 | 33 | 56 | 30.33 | NNW | 6 | 0.00 |
| 14 | 10/22 | 11:00 | 46 | 32 | 59 | 30.32 | NNW | 15 | 0.00 |
| 15 | 10/22 | 10:00 | 46 | 32 | 59 | 30.29 | NNW | 9 | 0.00 |
| 16 | 10/22 | 09:00 | 44 | 32 | 63 | 30.28 | WNW | 6 | 0.00 |
| 17 | 10/22 | 08:00 | 41 | 31 | 69 | 30.27 | NW | 2 | 0.00 |
| 18 | 10/22 | 07:00 | 41 | 31 | 68 | 30.23 | WNW | 5 | 0.00 |
| 19 | 10/22 | 06:00 | 40 | 29 | 67 | 30.21 | WNW | 5 | 0.00 |
| 20 | 10/22 | 05:00 | 41 | 30 | 66 | 30.19 | NW | 7 | 0.00 |
| 21 | 10/22 | 04:00 | 41 | 29 | 63 | 30.17 | NW | 5 | 0.00 |
| 22 | 10/22 | 03:00 | 43 | 30 | 60 | 30.16 | NW | 14 | 0.00 |
| 23 | 10/22 | 02:00 | 44 | 30 | 59 | 30.14 | NW | 12 | 0.00 |
| 24 | 10/22 | 01:00 | 46 | 30 | 55 | 30.13 | NNW | 11 | 0.00 |